sensor_id;sensor_type;location;lat;lon;timestamp;P1;durP1;ratioP1;P2;durP2;ratioP2
20348;SDS011;10332;50.208;18.988;2022-12-19T00:00:34;62.93;;;24.90;;
20348;SDS011;10332;50.208;18.988;2022-12-19T00:03:22;60.20;;;24.53;;
20348;SDS011;10332;50.208;18.988;2022-12-19T00:05:50;70.13;;;26.03;;
20348;SDS011;10332;50.208;18.988;2022-12-19T00:08:17;58.47;;;23.93;;
20348;SDS011;10332;50.208;18.988;2022-12-19T00:10:54;70.13;;;26.03;;
20348;SDS011;10332;50.208;18.988;2022-12-19T00:13:24;59.73;;;24.10;;
20348;SDS011;10332;50.208;18.988;2022-12-19T00:15:58;62.67;;;24.87;;
20348;SDS011;10332;50.208;18.988;2022-12-19T00:18:28;57.70;;;23.73;;
20348;SDS011;10332;50.208;18.988;2022-12-19T00:21:00;58.27;;;23.23;;
20348;SDS011;10332;50.208;18.988;2022-12-19T00:23:31;64.43;;;24.03;;
20348;SDS011;10332;50.208;18.988;2022-12-19T00:28:41;60.43;;;25.13;;
20348;SDS011;10332;50.208;18.988;2022-12-19T00:31:13;60.73;;;24.10;;
20348;SDS011;10332;50.208;18.988;2022-12-19T00:33:42;60.60;;;24.33;;
20348;SDS011;10332;50.208;18.988;2022-12-19T00:36:12;63.33;;;24.87;;
20348;SDS011;10332;50.208;18.988;2022-12-19T00:38:48;59.60;;;24.93;;
20348;SDS011;10332;50.208;18.988;2022-12-19T00:41:22;66.63;;;25.60;;
20348;SDS011;10332;50.208;18.988;2022-12-19T00:43:53;64.70;;;26.33;;
20348;SDS011;10332;50.208;18.988;2022-12-19T00:46:26;65.80;;;27.50;;
20348;SDS011;10332;50.208;18.988;2022-12-19T00:48:56;55.63;;;24.73;;
20348;SDS011;10332;50.208;18.988;2022-12-19T00:51:26;66.53;;;27.37;;
20348;SDS011;10332;50.208;18.988;2022-12-19T00:53:56;66.17;;;26.70;;
20348;SDS011;10332;50.208;18.988;2022-12-19T00:56:26;64.70;;;26.70;;
20348;SDS011;10332;50.208;18.988;2022-12-19T00:59:01;64.50;;;27.43;;
20348;SDS011;10332;50.208;18.988;2022-12-19T01:01:30;67.37;;;28.83;;
20348;SDS011;10332;50.208;18.988;2022-12-19T01:04:04;67.67;;;27.63;;
20348;SDS011;10332;50.208;18.988;2022-12-19T01:06:54;67.07;;;27.67;;
20348;SDS011;10332;50.208;18.988;2022-12-19T01:09:28;78.17;;;27.87;;
20348;SDS011;10332;50.208;18.988;2022-12-19T01:11:57;74.10;;;29.60;;
20348;SDS011;10332;50.208;18.988;2022-12-19T01:14:43;70.00;;;29.63;;
20348;SDS011;10332;50.208;18.988;2022-12-19T01:17:11;79.77;;;31.70;;
20348;SDS011;10332;50.208;18.988;2022-12-19T01:19:38;77.13;;;31.07;;
20348;SDS011;10332;50.208;18.988;2022-12-19T01:22:11;79.33;;;31.57;;
20348;SDS011;10332;50.208;18.988;2022-12-19T01:24:39;75.60;;;31.77;;
20348;SDS011;10332;50.208;18.988;2022-12-19T01:27:07;78.30;;;31.33;;
20348;SDS011;10332;50.208;18.988;2022-12-19T01:29:34;70.07;;;29.97;;
20348;SDS011;10332;50.208;18.988;2022-12-19T01:32:18;74.50;;;31.00;;
20348;SDS011;10332;50.208;18.988;2022-12-19T01:34:47;74.87;;;32.07;;
20348;SDS011;10332;50.208;18.988;2022-12-19T01:37:15;79.20;;;30.90;;
20348;SDS011;10332;50.208;18.988;2022-12-19T01:39:42;73.00;;;30.03;;
20348;SDS011;10332;50.208;18.988;2022-12-19T01:42:12;76.17;;;30.70;;
20348;SDS011;10332;50.208;18.988;2022-12-19T01:47:47;68.93;;;27.80;;
20348;SDS011;10332;50.208;18.988;2022-12-19T01:50:28;72.27;;;28.43;;
20348;SDS011;10332;50.208;18.988;2022-12-19T01:53:12;67.17;;;28.27;;
20348;SDS011;10332;50.208;18.988;2022-12-19T01:55:40;67.93;;;28.20;;
20348;SDS011;10332;50.208;18.988;2022-12-19T01:58:10;69.20;;;27.10;;
20348;SDS011;10332;50.208;18.988;2022-12-19T02:00:42;70.97;;;28.03;;
20348;SDS011;10332;50.208;18.988;2022-12-19T02:03:13;74.17;;;29.67;;
20348;SDS011;10332;50.208;18.988;2022-12-19T02:05:50;64.77;;;26.13;;
20348;SDS011;10332;50.208;18.988;2022-12-19T02:08:19;69.70;;;27.13;;
20348;SDS011;10332;50.208;18.988;2022-12-19T02:10:49;67.17;;;28.00;;
20348;SDS011;10332;50.208;18.988;2022-12-19T02:13:16;67.63;;;27.67;;
20348;SDS011;10332;50.208;18.988;2022-12-19T02:15:51;67.63;;;27.40;;
20348;SDS011;10332;50.208;18.988;2022-12-19T02:18:32;69.17;;;28.30;;
20348;SDS011;10332;50.208;18.988;2022-12-19T02:28:07;78.20;;;28.47;;
20348;SDS011;10332;50.208;18.988;2022-12-19T02:31:30;74.10;;;29.90;;
20348;SDS011;10332;50.208;18.988;2022-12-19T02:34:12;69.70;;;28.97;;
20348;SDS011;10332;50.208;18.988;2022-12-19T02:37:16;72.27;;;29.90;;
20348;SDS011;10332;50.208;18.988;2022-12-19T02:39:55;74.67;;;29.10;;
20348;SDS011;10332;50.208;18.988;2022-12-19T02:42:37;68.00;;;27.97;;
20348;SDS011;10332;50.208;18.988;2022-12-19T02:45:11;72.57;;;29.57;;
20348;SDS011;10332;50.208;18.988;2022-12-19T02:47:54;77.57;;;29.73;;
20348;SDS011;10332;50.208;18.988;2022-12-19T02:50:38;74.23;;;29.03;;
20348;SDS011;10332;50.208;18.988;2022-12-19T02:53:16;76.03;;;29.63;;
20348;SDS011;10332;50.208;18.988;2022-12-19T03:01:30;64.87;;;26.27;;
20348;SDS011;10332;50.208;18.988;2022-12-19T03:07:14;67.77;;;27.77;;
20348;SDS011;10332;50.208;18.988;2022-12-19T03:13:00;71.33;;;26.60;;
20348;SDS011;10332;50.208;18.988;2022-12-19T03:15:37;70.67;;;29.83;;
20348;SDS011;10332;50.208;18.988;2022-12-19T03:18:07;70.40;;;28.67;;
20348;SDS011;10332;50.208;18.988;2022-12-19T03:23:30;63.03;;;26.00;;
20348;SDS011;10332;50.208;18.988;2022-12-19T03:25:59;70.07;;;28.57;;
20348;SDS011;10332;50.208;18.988;2022-12-19T03:28:42;72.07;;;28.30;;
20348;SDS011;10332;50.208;18.988;2022-12-19T03:31:37;69.33;;;27.57;;
20348;SDS011;10332;50.208;18.988;2022-12-19T03:34:50;72.03;;;28.20;;
20348;SDS011;10332;50.208;18.988;2022-12-19T03:37:16;66.77;;;28.17;;
20348;SDS011;10332;50.208;18.988;2022-12-19T03:39:50;71.27;;;27.63;;
20348;SDS011;10332;50.208;18.988;2022-12-19T03:42:27;66.40;;;27.07;;
20348;SDS011;10332;50.208;18.988;2022-12-19T03:45:19;74.10;;;28.27;;
20348;SDS011;10332;50.208;18.988;2022-12-19T03:48:01;66.83;;;26.13;;
20348;SDS011;10332;50.208;18.988;2022-12-19T03:50:41;69.17;;;27.07;;
20348;SDS011;10332;50.208;18.988;2022-12-19T03:54:05;68.27;;;25.97;;
20348;SDS011;10332;50.208;18.988;2022-12-19T03:59:15;69.10;;;28.37;;
20348;SDS011;10332;50.208;18.988;2022-12-19T04:01:59;67.13;;;26.57;;
20348;SDS011;10332;50.208;18.988;2022-12-19T04:04:30;66.73;;;26.80;;
20348;SDS011;10332;50.208;18.988;2022-12-19T04:07:03;62.70;;;25.77;;
20348;SDS011;10332;50.208;18.988;2022-12-19T04:09:33;67.83;;;28.57;;
20348;SDS011;10332;50.208;18.988;2022-12-19T04:12:05;66.57;;;25.73;;
20348;SDS011;10332;50.208;18.988;2022-12-19T04:14:45;62.50;;;26.47;;
20348;SDS011;10332;50.208;18.988;2022-12-19T04:20:20;65.83;;;26.27;;
20348;SDS011;10332;50.208;18.988;2022-12-19T04:23:02;64.73;;;27.03;;
20348;SDS011;10332;50.208;18.988;2022-12-19T04:25:41;66.87;;;27.80;;
20348;SDS011;10332;50.208;18.988;2022-12-19T04:28:23;70.07;;;27.60;;
20348;SDS011;10332;50.208;18.988;2022-12-19T04:30:58;69.00;;;26.30;;
20348;SDS011;10332;50.208;18.988;2022-12-19T04:33:28;73.50;;;29.07;;
20348;SDS011;10332;50.208;18.988;2022-12-19T04:35:55;65.80;;;26.90;;
20348;SDS011;10332;50.208;18.988;2022-12-19T04:38:23;68.17;;;27.77;;
20348;SDS011;10332;50.208;18.988;2022-12-19T04:40:50;70.77;;;26.73;;
20348;SDS011;10332;50.208;18.988;2022-12-19T04:43:18;66.93;;;28.37;;
20348;SDS011;10332;50.208;18.988;2022-12-19T04:45:45;66.33;;;26.70;;
20348;SDS011;10332;50.208;18.988;2022-12-19T04:48:18;71.90;;;28.93;;
20348;SDS011;10332;50.208;18.988;2022-12-19T04:50:45;71.63;;;29.47;;
20348;SDS011;10332;50.208;18.988;2022-12-19T04:53:12;68.70;;;28.17;;
20348;SDS011;10332;50.208;18.988;2022-12-19T04:55:40;68.80;;;28.67;;
20348;SDS011;10332;50.208;18.988;2022-12-19T04:58:07;77.73;;;30.27;;
20348;SDS011;10332;50.208;18.988;2022-12-19T05:00:35;71.53;;;29.93;;
20348;SDS011;10332;50.208;18.988;2022-12-19T05:03:02;73.80;;;29.40;;
20348;SDS011;10332;50.208;18.988;2022-12-19T05:05:30;71.07;;;28.20;;
20348;SDS011;10332;50.208;18.988;2022-12-19T05:07:58;75.23;;;30.20;;
20348;SDS011;10332;50.208;18.988;2022-12-19T05:10:25;76.80;;;30.30;;
20348;SDS011;10332;50.208;18.988;2022-12-19T05:12:53;71.73;;;29.20;;
20348;SDS011;10332;50.208;18.988;2022-12-19T05:15:20;69.60;;;29.40;;
20348;SDS011;10332;50.208;18.988;2022-12-19T05:17:48;72.33;;;31.03;;
20348;SDS011;10332;50.208;18.988;2022-12-19T05:20:15;84.70;;;40.57;;
20348;SDS011;10332;50.208;18.988;2022-12-19T05:22:42;74.57;;;30.90;;
20348;SDS011;10332;50.208;18.988;2022-12-19T05:25:10;69.90;;;28.37;;
20348;SDS011;10332;50.208;18.988;2022-12-19T05:27:37;69.80;;;29.43;;
20348;SDS011;10332;50.208;18.988;2022-12-19T05:30:05;72.27;;;29.63;;
20348;SDS011;10332;50.208;18.988;2022-12-19T05:32:34;68.67;;;30.40;;
20348;SDS011;10332;50.208;18.988;2022-12-19T05:35:01;69.50;;;31.83;;
20348;SDS011;10332;50.208;18.988;2022-12-19T05:37:29;75.87;;;31.00;;
20348;SDS011;10332;50.208;18.988;2022-12-19T05:39:57;76.53;;;31.43;;
20348;SDS011;10332;50.208;18.988;2022-12-19T05:42:24;69.40;;;29.87;;
20348;SDS011;10332;50.208;18.988;2022-12-19T05:44:52;69.07;;;30.17;;
20348;SDS011;10332;50.208;18.988;2022-12-19T05:47:19;66.80;;;29.03;;
20348;SDS011;10332;50.208;18.988;2022-12-19T05:49:48;76.10;;;30.37;;
20348;SDS011;10332;50.208;18.988;2022-12-19T05:52:15;67.77;;;28.00;;
20348;SDS011;10332;50.208;18.988;2022-12-19T05:54:43;68.43;;;28.53;;
20348;SDS011;10332;50.208;18.988;2022-12-19T05:57:10;73.57;;;29.07;;
20348;SDS011;10332;50.208;18.988;2022-12-19T05:59:37;65.87;;;27.93;;
20348;SDS011;10332;50.208;18.988;2022-12-19T06:02:05;67.77;;;29.20;;
20348;SDS011;10332;50.208;18.988;2022-12-19T06:04:33;69.03;;;28.67;;
20348;SDS011;10332;50.208;18.988;2022-12-19T06:07:00;74.67;;;30.00;;
20348;SDS011;10332;50.208;18.988;2022-12-19T06:09:28;65.03;;;26.93;;
20348;SDS011;10332;50.208;18.988;2022-12-19T06:11:55;66.97;;;26.87;;
20348;SDS011;10332;50.208;18.988;2022-12-19T06:14:22;71.70;;;27.73;;
20348;SDS011;10332;50.208;18.988;2022-12-19T06:16:50;60.93;;;26.60;;
20348;SDS011;10332;50.208;18.988;2022-12-19T06:19:19;70.80;;;28.07;;
20348;SDS011;10332;50.208;18.988;2022-12-19T06:21:46;62.43;;;27.93;;
20348;SDS011;10332;50.208;18.988;2022-12-19T06:24:14;64.73;;;27.43;;
20348;SDS011;10332;50.208;18.988;2022-12-19T06:26:42;62.33;;;26.17;;
20348;SDS011;10332;50.208;18.988;2022-12-19T06:29:11;65.20;;;26.90;;
20348;SDS011;10332;50.208;18.988;2022-12-19T06:31:38;57.83;;;25.20;;
20348;SDS011;10332;50.208;18.988;2022-12-19T06:34:05;63.30;;;26.63;;
20348;SDS011;10332;50.208;18.988;2022-12-19T06:36:36;63.67;;;25.40;;
20348;SDS011;10332;50.208;18.988;2022-12-19T06:39:08;66.97;;;27.30;;
20348;SDS011;10332;50.208;18.988;2022-12-19T06:41:40;63.63;;;25.33;;
20348;SDS011;10332;50.208;18.988;2022-12-19T06:44:26;63.27;;;24.73;;
20348;SDS011;10332;50.208;18.988;2022-12-19T06:46:54;57.10;;;24.20;;
20348;SDS011;10332;50.208;18.988;2022-12-19T06:49:21;64.37;;;25.77;;
20348;SDS011;10332;50.208;18.988;2022-12-19T06:51:49;61.83;;;26.07;;
20348;SDS011;10332;50.208;18.988;2022-12-19T06:54:16;59.23;;;25.87;;
20348;SDS011;10332;50.208;18.988;2022-12-19T06:56:43;67.90;;;26.50;;
20348;SDS011;10332;50.208;18.988;2022-12-19T06:59:12;69.60;;;27.87;;
20348;SDS011;10332;50.208;18.988;2022-12-19T07:04:27;67.43;;;26.43;;
20348;SDS011;10332;50.208;18.988;2022-12-19T07:07:08;64.60;;;25.17;;
20348;SDS011;10332;50.208;18.988;2022-12-19T07:09:36;66.53;;;28.83;;
20348;SDS011;10332;50.208;18.988;2022-12-19T07:12:03;63.50;;;26.03;;
20348;SDS011;10332;50.208;18.988;2022-12-19T07:14:32;68.90;;;28.90;;
20348;SDS011;10332;50.208;18.988;2022-12-19T07:16:59;58.57;;;25.83;;
20348;SDS011;10332;50.208;18.988;2022-12-19T07:19:29;64.57;;;25.10;;
20348;SDS011;10332;50.208;18.988;2022-12-19T07:21:58;61.50;;;25.70;;
20348;SDS011;10332;50.208;18.988;2022-12-19T07:24:29;57.27;;;24.93;;
20348;SDS011;10332;50.208;18.988;2022-12-19T07:26:57;61.83;;;26.53;;
20348;SDS011;10332;50.208;18.988;2022-12-19T07:29:25;64.73;;;26.10;;
20348;SDS011;10332;50.208;18.988;2022-12-19T07:31:52;62.90;;;26.00;;
20348;SDS011;10332;50.208;18.988;2022-12-19T07:34:20;66.60;;;27.97;;
20348;SDS011;10332;50.208;18.988;2022-12-19T07:36:47;61.23;;;26.63;;
20348;SDS011;10332;50.208;18.988;2022-12-19T07:39:15;69.60;;;27.57;;
20348;SDS011;10332;50.208;18.988;2022-12-19T07:41:42;69.90;;;29.33;;
20348;SDS011;10332;50.208;18.988;2022-12-19T07:44:09;78.07;;;38.40;;
20348;SDS011;10332;50.208;18.988;2022-12-19T07:46:38;77.53;;;32.70;;
20348;SDS011;10332;50.208;18.988;2022-12-19T07:49:06;76.47;;;34.33;;
20348;SDS011;10332;50.208;18.988;2022-12-19T07:51:33;68.63;;;27.83;;
20348;SDS011;10332;50.208;18.988;2022-12-19T07:54:01;66.87;;;27.67;;
20348;SDS011;10332;50.208;18.988;2022-12-19T07:56:29;63.53;;;26.57;;
20348;SDS011;10332;50.208;18.988;2022-12-19T07:58:57;64.87;;;27.73;;
20348;SDS011;10332;50.208;18.988;2022-12-19T08:01:24;66.43;;;28.47;;
20348;SDS011;10332;50.208;18.988;2022-12-19T08:03:55;65.90;;;27.47;;
20348;SDS011;10332;50.208;18.988;2022-12-19T08:06:24;65.47;;;27.90;;
20348;SDS011;10332;50.208;18.988;2022-12-19T08:08:52;73.33;;;31.23;;
20348;SDS011;10332;50.208;18.988;2022-12-19T08:11:19;61.17;;;27.13;;
20348;SDS011;10332;50.208;18.988;2022-12-19T08:13:52;64.43;;;26.03;;
20348;SDS011;10332;50.208;18.988;2022-12-19T08:16:21;69.37;;;29.90;;
20348;SDS011;10332;50.208;18.988;2022-12-19T08:18:52;69.63;;;31.40;;
20348;SDS011;10332;50.208;18.988;2022-12-19T08:21:21;71.63;;;29.17;;
20348;SDS011;10332;50.208;18.988;2022-12-19T08:23:51;64.20;;;28.53;;
20348;SDS011;10332;50.208;18.988;2022-12-19T08:26:19;59.83;;;25.87;;
20348;SDS011;10332;50.208;18.988;2022-12-19T08:28:52;67.53;;;28.00;;
20348;SDS011;10332;50.208;18.988;2022-12-19T08:31:23;61.57;;;26.10;;
20348;SDS011;10332;50.208;18.988;2022-12-19T08:33:52;58.03;;;26.57;;
20348;SDS011;10332;50.208;18.988;2022-12-19T08:36:22;60.47;;;26.73;;
20348;SDS011;10332;50.208;18.988;2022-12-19T08:38:51;59.87;;;27.57;;
20348;SDS011;10332;50.208;18.988;2022-12-19T08:41:19;64.50;;;26.53;;
20348;SDS011;10332;50.208;18.988;2022-12-19T08:43:50;64.87;;;30.00;;
20348;SDS011;10332;50.208;18.988;2022-12-19T08:46:19;56.93;;;26.50;;
20348;SDS011;10332;50.208;18.988;2022-12-19T08:48:48;60.50;;;27.30;;
20348;SDS011;10332;50.208;18.988;2022-12-19T08:51:16;61.43;;;27.63;;
20348;SDS011;10332;50.208;18.988;2022-12-19T08:53:45;57.25;;;28.35;;
20348;SDS011;10332;50.208;18.988;2022-12-19T08:56:17;52.58;;;26.92;;
20348;SDS011;10332;50.208;18.988;2022-12-19T08:58:47;54.10;;;28.23;;
20348;SDS011;10332;50.208;18.988;2022-12-19T09:01:18;59.10;;;31.42;;
20348;SDS011;10332;50.208;18.988;2022-12-19T09:03:46;54.03;;;29.15;;
20348;SDS011;10332;50.208;18.988;2022-12-19T09:06:34;56.40;;;28.83;;
20348;SDS011;10332;50.208;18.988;2022-12-19T09:09:03;45.42;;;24.50;;
20348;SDS011;10332;50.208;18.988;2022-12-19T09:11:30;51.17;;;28.40;;
20348;SDS011;10332;50.208;18.988;2022-12-19T09:14:01;54.97;;;30.40;;
20348;SDS011;10332;50.208;18.988;2022-12-19T09:16:30;48.03;;;27.73;;
20348;SDS011;10332;50.208;18.988;2022-12-19T09:18:58;47.60;;;29.42;;
20348;SDS011;10332;50.208;18.988;2022-12-19T09:21:26;45.22;;;26.85;;
20348;SDS011;10332;50.208;18.988;2022-12-19T09:23:56;52.83;;;29.88;;
20348;SDS011;10332;50.208;18.988;2022-12-19T09:26:33;49.95;;;30.13;;
20348;SDS011;10332;50.208;18.988;2022-12-19T09:29:03;55.33;;;32.28;;
20348;SDS011;10332;50.208;18.988;2022-12-19T09:31:46;50.90;;;33.17;;
20348;SDS011;10332;50.208;18.988;2022-12-19T09:34:23;50.80;;;31.42;;
20348;SDS011;10332;50.208;18.988;2022-12-19T09:37:09;54.38;;;33.15;;
20348;SDS011;10332;50.208;18.988;2022-12-19T09:39:42;52.63;;;32.35;;
20348;SDS011;10332;50.208;18.988;2022-12-19T09:42:24;49.60;;;30.55;;
20348;SDS011;10332;50.208;18.988;2022-12-19T09:48:01;57.17;;;33.22;;
20348;SDS011;10332;50.208;18.988;2022-12-19T09:50:37;57.75;;;35.60;;
20348;SDS011;10332;50.208;18.988;2022-12-19T09:53:38;57.97;;;34.85;;
20348;SDS011;10332;50.208;18.988;2022-12-19T09:56:28;61.00;;;35.08;;
20348;SDS011;10332;50.208;18.988;2022-12-19T09:59:12;58.92;;;34.33;;
20348;SDS011;10332;50.208;18.988;2022-12-19T10:05:17;74.22;;;40.90;;
20348;SDS011;10332;50.208;18.988;2022-12-19T10:08:37;65.50;;;38.58;;
20348;SDS011;10332;50.208;18.988;2022-12-19T10:11:50;68.20;;;38.85;;
20348;SDS011;10332;50.208;18.988;2022-12-19T10:20:32;64.68;;;38.78;;
20348;SDS011;10332;50.208;18.988;2022-12-19T10:23:16;58.08;;;35.13;;
20348;SDS011;10332;50.208;18.988;2022-12-19T10:35:17;62.22;;;41.00;;
20348;SDS011;10332;50.208;18.988;2022-12-19T10:37:51;66.00;;;41.95;;
20348;SDS011;10332;50.208;18.988;2022-12-19T10:40:50;60.30;;;40.25;;
20348;SDS011;10332;50.208;18.988;2022-12-19T10:43:30;63.50;;;41.13;;
20348;SDS011;10332;50.208;18.988;2022-12-19T10:49:23;58.08;;;38.35;;
20348;SDS011;10332;50.208;18.988;2022-12-19T10:52:00;57.08;;;36.58;;
20348;SDS011;10332;50.208;18.988;2022-12-19T11:00:04;60.70;;;40.30;;
20348;SDS011;10332;50.208;18.988;2022-12-19T11:02:46;52.00;;;35.13;;
20348;SDS011;10332;50.208;18.988;2022-12-19T11:05:30;50.50;;;34.72;;
20348;SDS011;10332;50.208;18.988;2022-12-19T11:13:52;47.15;;;31.70;;
20348;SDS011;10332;50.208;18.988;2022-12-19T11:16:39;55.78;;;38.47;;
20348;SDS011;10332;50.208;18.988;2022-12-19T11:22:22;57.22;;;37.47;;
20348;SDS011;10332;50.208;18.988;2022-12-19T11:25:17;55.72;;;38.05;;
20348;SDS011;10332;50.208;18.988;2022-12-19T11:28:15;53.28;;;36.95;;
20348;SDS011;10332;50.208;18.988;2022-12-19T11:34:15;60.25;;;39.63;;
20348;SDS011;10332;50.208;18.988;2022-12-19T11:37:13;58.00;;;39.42;;
20348;SDS011;10332;50.208;18.988;2022-12-19T11:39:52;55.35;;;37.20;;
20348;SDS011;10332;50.208;18.988;2022-12-19T11:45:17;56.92;;;37.63;;
20348;SDS011;10332;50.208;18.988;2022-12-19T11:48:02;55.90;;;37.20;;
20348;SDS011;10332;50.208;18.988;2022-12-19T11:51:02;57.80;;;37.20;;
20348;SDS011;10332;50.208;18.988;2022-12-19T11:53:48;53.63;;;35.83;;
20348;SDS011;10332;50.208;18.988;2022-12-19T11:56:45;54.88;;;36.67;;
20348;SDS011;10332;50.208;18.988;2022-12-19T12:02:05;60.17;;;36.92;;
20348;SDS011;10332;50.208;18.988;2022-12-19T12:14:49;54.25;;;36.03;;
20348;SDS011;10332;50.208;18.988;2022-12-19T12:18:11;56.65;;;36.40;;
20348;SDS011;10332;50.208;18.988;2022-12-19T12:24:19;56.67;;;35.10;;
20348;SDS011;10332;50.208;18.988;2022-12-19T12:30:42;54.63;;;35.38;;
20348;SDS011;10332;50.208;18.988;2022-12-19T12:34:02;61.00;;;37.63;;
20348;SDS011;10332;50.208;18.988;2022-12-19T12:43:24;63.95;;;39.17;;
20348;SDS011;10332;50.208;18.988;2022-12-19T12:46:24;66.20;;;38.85;;
20348;SDS011;10332;50.208;18.988;2022-12-19T12:49:04;67.93;;;39.92;;
20348;SDS011;10332;50.208;18.988;2022-12-19T12:51:48;65.38;;;38.75;;
20348;SDS011;10332;50.208;18.988;2022-12-19T12:54:17;71.40;;;41.58;;
20348;SDS011;10332;50.208;18.988;2022-12-19T12:56:46;71.35;;;42.85;;
20348;SDS011;10332;50.208;18.988;2022-12-19T12:59:19;76.28;;;45.17;;
20348;SDS011;10332;50.208;18.988;2022-12-19T13:01:51;81.88;;;44.38;;
20348;SDS011;10332;50.208;18.988;2022-12-19T13:04:42;80.35;;;43.97;;
20348;SDS011;10332;50.208;18.988;2022-12-19T13:07:29;78.07;;;44.28;;
20348;SDS011;10332;50.208;18.988;2022-12-19T13:10:23;86.63;;;45.72;;
20348;SDS011;10332;50.208;18.988;2022-12-19T13:13:07;82.45;;;44.63;;
20348;SDS011;10332;50.208;18.988;2022-12-19T13:15:47;86.32;;;45.53;;
20348;SDS011;10332;50.208;18.988;2022-12-19T13:18:29;82.53;;;44.65;;
20348;SDS011;10332;50.208;18.988;2022-12-19T13:21:01;86.85;;;46.50;;
20348;SDS011;10332;50.208;18.988;2022-12-19T13:26:03;78.95;;;45.28;;
20348;SDS011;10332;50.208;18.988;2022-12-19T13:29:25;69.13;;;41.20;;
20348;SDS011;10332;50.208;18.988;2022-12-19T13:32:16;76.25;;;41.45;;
20348;SDS011;10332;50.208;18.988;2022-12-19T13:38:05;74.85;;;41.85;;
20348;SDS011;10332;50.208;18.988;2022-12-19T13:41:23;79.45;;;42.53;;
20348;SDS011;10332;50.208;18.988;2022-12-19T13:44:23;78.85;;;42.38;;
20348;SDS011;10332;50.208;18.988;2022-12-19T13:46:52;81.13;;;44.78;;
20348;SDS011;10332;50.208;18.988;2022-12-19T13:49:28;84.28;;;44.47;;
20348;SDS011;10332;50.208;18.988;2022-12-19T13:52:00;92.18;;;46.63;;
20348;SDS011;10332;50.208;18.988;2022-12-19T13:54:33;90.68;;;45.17;;
20348;SDS011;10332;50.208;18.988;2022-12-19T13:57:25;90.28;;;45.30;;
20348;SDS011;10332;50.208;18.988;2022-12-19T13:59:57;89.10;;;45.35;;
20348;SDS011;10332;50.208;18.988;2022-12-19T14:02:33;87.88;;;46.33;;
20348;SDS011;10332;50.208;18.988;2022-12-19T14:08:18;99.05;;;47.28;;
20348;SDS011;10332;50.208;18.988;2022-12-19T14:10:50;90.55;;;43.50;;
20348;SDS011;10332;50.208;18.988;2022-12-19T14:13:53;100.00;;;46.97;;
20348;SDS011;10332;50.208;18.988;2022-12-19T14:16:52;101.28;;;47.92;;
20348;SDS011;10332;50.208;18.988;2022-12-19T14:19:35;103.75;;;48.15;;
20348;SDS011;10332;50.208;18.988;2022-12-19T14:22:10;99.15;;;45.58;;
20348;SDS011;10332;50.208;18.988;2022-12-19T14:24:55;97.95;;;45.30;;
20348;SDS011;10332;50.208;18.988;2022-12-19T14:27:52;98.15;;;47.22;;
20348;SDS011;10332;50.208;18.988;2022-12-19T14:30:56;97.57;;;47.03;;
20348;SDS011;10332;50.208;18.988;2022-12-19T14:33:32;99.18;;;46.72;;
20348;SDS011;10332;50.208;18.988;2022-12-19T14:36:31;99.10;;;45.67;;
20348;SDS011;10332;50.208;18.988;2022-12-19T14:39:02;101.00;;;46.13;;
20348;SDS011;10332;50.208;18.988;2022-12-19T14:41:50;106.05;;;48.95;;
20348;SDS011;10332;50.208;18.988;2022-12-19T14:48:34;105.78;;;48.55;;
20348;SDS011;10332;50.208;18.988;2022-12-19T14:51:47;106.18;;;47.25;;
20348;SDS011;10332;50.208;18.988;2022-12-19T14:54:34;104.07;;;46.57;;
20348;SDS011;10332;50.208;18.988;2022-12-19T14:57:22;102.70;;;47.70;;
20348;SDS011;10332;50.208;18.988;2022-12-19T15:00:24;103.53;;;47.70;;
20348;SDS011;10332;50.208;18.988;2022-12-19T15:03:20;102.10;;;46.85;;
20348;SDS011;10332;50.208;18.988;2022-12-19T15:06:04;105.63;;;45.80;;
20348;SDS011;10332;50.208;18.988;2022-12-19T15:09:06;99.38;;;45.08;;
20348;SDS011;10332;50.208;18.988;2022-12-19T15:12:02;116.37;;;51.60;;
20348;SDS011;10332;50.208;18.988;2022-12-19T15:15:19;117.80;;;51.45;;
20348;SDS011;10332;50.208;18.988;2022-12-19T15:18:15;119.85;;;51.13;;
20348;SDS011;10332;50.208;18.988;2022-12-19T15:20:55;112.50;;;49.35;;
20348;SDS011;10332;50.208;18.988;2022-12-19T15:23:29;111.28;;;49.80;;
20348;SDS011;10332;50.208;18.988;2022-12-19T15:25:59;112.83;;;52.90;;
20348;SDS011;10332;50.208;18.988;2022-12-19T15:28:37;107.87;;;51.17;;
20348;SDS011;10332;50.208;18.988;2022-12-19T15:31:06;108.07;;;51.20;;
20348;SDS011;10332;50.208;18.988;2022-12-19T15:33:43;118.07;;;51.67;;
20348;SDS011;10332;50.208;18.988;2022-12-19T15:36:30;106.97;;;48.67;;
20348;SDS011;10332;50.208;18.988;2022-12-19T15:38:58;111.23;;;50.63;;
20348;SDS011;10332;50.208;18.988;2022-12-19T15:41:25;110.57;;;50.47;;
20348;SDS011;10332;50.208;18.988;2022-12-19T15:43:54;113.87;;;54.50;;
20348;SDS011;10332;50.208;18.988;2022-12-19T15:46:31;104.37;;;49.47;;
20348;SDS011;10332;50.208;18.988;2022-12-19T15:48:59;106.77;;;50.53;;
20348;SDS011;10332;50.208;18.988;2022-12-19T15:51:27;117.70;;;51.10;;
20348;SDS011;10332;50.208;18.988;2022-12-19T15:53:55;231.37;;;100.27;;
20348;SDS011;10332;50.208;18.988;2022-12-19T15:56:43;188.43;;;79.47;;
20348;SDS011;10332;50.208;18.988;2022-12-19T15:59:21;226.93;;;95.47;;
20348;SDS011;10332;50.208;18.988;2022-12-19T16:02:11;164.93;;;75.30;;
20348;SDS011;10332;50.208;18.988;2022-12-19T16:04:46;145.00;;;64.57;;
20348;SDS011;10332;50.208;18.988;2022-12-19T16:07:22;128.50;;;57.10;;
20348;SDS011;10332;50.208;18.988;2022-12-19T16:09:53;143.53;;;63.00;;
20348;SDS011;10332;50.208;18.988;2022-12-19T16:12:23;142.87;;;62.13;;
20348;SDS011;10332;50.208;18.988;2022-12-19T16:15:03;135.40;;;58.70;;
20348;SDS011;10332;50.208;18.988;2022-12-19T16:17:33;136.70;;;57.73;;
20348;SDS011;10332;50.208;18.988;2022-12-19T16:20:00;145.93;;;62.13;;
20348;SDS011;10332;50.208;18.988;2022-12-19T16:22:27;134.97;;;59.50;;
20348;SDS011;10332;50.208;18.988;2022-12-19T16:24:55;136.50;;;60.70;;
20348;SDS011;10332;50.208;18.988;2022-12-19T16:27:26;146.17;;;60.47;;
20348;SDS011;10332;50.208;18.988;2022-12-19T16:29:57;146.17;;;63.17;;
20348;SDS011;10332;50.208;18.988;2022-12-19T16:32:44;131.93;;;58.47;;
20348;SDS011;10332;50.208;18.988;2022-12-19T16:35:13;144.50;;;63.30;;
20348;SDS011;10332;50.208;18.988;2022-12-19T16:38:05;137.40;;;59.37;;
20348;SDS011;10332;50.208;18.988;2022-12-19T16:40:33;146.90;;;62.23;;
20348;SDS011;10332;50.208;18.988;2022-12-19T16:43:44;140.13;;;59.57;;
20348;SDS011;10332;50.208;18.988;2022-12-19T16:45:56;140.67;;;60.00;;
20348;SDS011;10332;50.208;18.988;2022-12-19T16:48:28;147.03;;;63.00;;
20348;SDS011;10332;50.208;18.988;2022-12-19T16:50:59;149.93;;;65.73;;
20348;SDS011;10332;50.208;18.988;2022-12-19T16:53:26;143.67;;;59.97;;
20348;SDS011;10332;50.208;18.988;2022-12-19T16:55:55;135.50;;;56.23;;
20348;SDS011;10332;50.208;18.988;2022-12-19T16:58:25;127.73;;;54.37;;